EWG6TN ESGG-EDDF
Flight info
| Callsign | EWG6TN |
|---|---|
| Flight time | N/A |
| Altitude | 37000 |
| Route | TOPLA L996 ERNOV DCT NIKDA/N0436F380 DCT NOBRI DCT BUMIL DCT HLZ DCT RIMET/N0415F310 T157 KOKEB/N0366F230 T157 KERAX KERAX5D |
| Aircraft | A321/M-SDE3FGHIRWY/LB1 |
Departure
| Time | 2026-04-30 22:24 |
|---|---|
| Airport | Göteborg Landvetter Airport (ESGG) |
Arrival
| Time | N/A |
|---|---|
| Airport | Frankfurt Main Airport (EDDF) |
| Time | Latitude | Longitude | Altitude | Speed | Heading |
|---|---|---|---|---|---|
| 2026-04-30 21:55 | 57.67011 | 12.29516 | 522 ft | 0 kts | 114° |
| 2026-04-30 22:17 | 57.67019 | 12.29486 | 522 ft | 2 kts | 114° |
| 2026-04-30 22:17 | 57.67023 | 12.29469 | 522 ft | 1 kts | 114° |
| 2026-04-30 22:17 | 57.67024 | 12.29408 | 522 ft | 2 kts | 63° |
| 2026-04-30 22:18 | 57.67015 | 12.29386 | 522 ft | 2 kts | 39° |
| 2026-04-30 22:18 | 57.67002 | 12.29372 | 522 ft | 0 kts | 25° |
| 2026-04-30 22:20 | 57.67004 | 12.29373 | 522 ft | 1 kts | 25° |
| 2026-04-30 22:20 | 57.67022 | 12.29389 | 522 ft | 6 kts | 25° |
| 2026-04-30 22:21 | 57.67100 | 12.29459 | 522 ft | 13 kts | 26° |
| 2026-04-30 22:21 | 57.67175 | 12.29528 | 522 ft | 7 kts | 16° |
| 2026-04-30 22:21 | 57.67214 | 12.29481 | 522 ft | 7 kts | 295° |
| 2026-04-30 22:21 | 57.67252 | 12.29396 | 521 ft | 9 kts | 346° |
| 2026-04-30 22:22 | 57.67329 | 12.29444 | 520 ft | 12 kts | 26° |
| 2026-04-30 22:22 | 57.67379 | 12.29483 | 520 ft | 5 kts | 10° |
| 2026-04-30 22:22 | 57.67422 | 12.29417 | 517 ft | 10 kts | 295° |
| 2026-04-30 22:22 | 57.67452 | 12.29300 | 513 ft | 8 kts | 286° |
| 2026-04-30 22:23 | 57.67451 | 12.29162 | 512 ft | 10 kts | 261° |
| 2026-04-30 22:23 | 57.67427 | 12.29043 | 512 ft | 9 kts | 232° |
| 2026-04-30 22:23 | 57.67334 | 12.28940 | 512 ft | 36 kts | 205° |
| 2026-04-30 22:23 | 57.66796 | 12.28450 | 513 ft | 115 kts | 207° |
| 2026-04-30 22:24 | 57.65859 | 12.27598 | 609 ft | 163 kts | 206° |
| 2026-04-30 22:24 | 57.64776 | 12.26619 | 1035 ft | 180 kts | 207° |
| 2026-04-30 22:24 | 57.63638 | 12.25594 | 1741 ft | 186 kts | 210° |
| 2026-04-30 22:24 | 57.62473 | 12.24550 | 2481 ft | 183 kts | 210° |
| 2026-04-30 22:25 | 57.61272 | 12.23475 | 2994 ft | 184 kts | 210° |
| 2026-04-30 22:25 | 57.60006 | 12.22766 | 3418 ft | 194 kts | 190° |
| 2026-04-30 22:25 | 57.58638 | 12.22532 | 3869 ft | 199 kts | 188° |
| 2026-04-30 22:25 | 57.57230 | 12.22440 | 4232 ft | 211 kts | 182° |
| 2026-04-30 22:26 | 57.54116 | 12.22677 | 4861 ft | 244 kts | 174° |
| 2026-04-30 22:26 | 57.52377 | 12.23228 | 5165 ft | 264 kts | 171° |
| 2026-04-30 22:26 | 57.50491 | 12.23842 | 5623 ft | 280 kts | 171° |
| 2026-04-30 22:27 | 57.48541 | 12.24451 | 6165 ft | 292 kts | 172° |
| 2026-04-30 22:27 | 57.46478 | 12.25064 | 6873 ft | 298 kts | 172° |
| 2026-04-30 22:27 | 57.42500 | 12.26145 | 8781 ft | 292 kts | 172° |
| 2026-04-30 22:28 | 57.38395 | 12.27242 | 10262 ft | 300 kts | 171° |
| 2026-04-30 22:28 | 57.36274 | 12.27813 | 10910 ft | 307 kts | 171° |
| 2026-04-30 22:29 | 57.29512 | 12.29632 | 12278 ft | 343 kts | 171° |
| 2026-04-30 22:29 | 57.27143 | 12.30268 | 12999 ft | 346 kts | 171° |
| 2026-04-30 22:30 | 57.17438 | 12.32852 | 15590 ft | 359 kts | 171° |
| 2026-04-30 22:31 | 57.09891 | 12.34815 | 17394 ft | 370 kts | 171° |
| 2026-04-30 22:32 | 57.02146 | 12.36735 | 19053 ft | 381 kts | 171° |
| 2026-04-30 22:32 | 56.96878 | 12.38033 | 20153 ft | 387 kts | 171° |
| 2026-04-30 22:33 | 56.88819 | 12.40021 | 21671 ft | 396 kts | 171° |
| 2026-04-30 22:33 | 56.83345 | 12.41368 | 22650 ft | 402 kts | 171° |
| 2026-04-30 22:34 | 56.74984 | 12.43417 | 24019 ft | 410 kts | 171° |
| 2026-04-30 22:35 | 56.69328 | 12.44796 | 24871 ft | 416 kts | 171° |
| 2026-04-30 22:36 | 56.57780 | 12.47600 | 26525 ft | 425 kts | 170° |
| 2026-04-30 22:36 | 56.54817 | 12.48317 | 26918 ft | 428 kts | 170° |
| 2026-04-30 22:37 | 56.45897 | 12.50468 | 28083 ft | 434 kts | 170° |
| 2026-04-30 22:37 | 56.42889 | 12.51190 | 28442 ft | 436 kts | 170° |
| 2026-04-30 22:37 | 56.36866 | 12.52633 | 29139 ft | 441 kts | 170° |
| 2026-04-30 22:38 | 56.30786 | 12.54083 | 29802 ft | 445 kts | 170° |
| 2026-04-30 22:38 | 56.24643 | 12.55542 | 30435 ft | 449 kts | 170° |
| 2026-04-30 22:39 | 56.21671 | 12.56215 | 30735 ft | 451 kts | 172° |
| 2026-04-30 22:39 | 56.12230 | 12.56506 | 31560 ft | 459 kts | 182° |
| 2026-04-30 22:40 | 56.02730 | 12.54694 | 32625 ft | 457 kts | 185° |
| 2026-04-30 22:41 | 55.93246 | 12.52875 | 33701 ft | 454 kts | 185° |
| 2026-04-30 22:41 | 55.86995 | 12.51686 | 34340 ft | 452 kts | 185° |
| 2026-04-30 22:42 | 55.74438 | 12.49318 | 35544 ft | 450 kts | 185° |
| 2026-04-30 22:43 | 55.68200 | 12.48146 | 36049 ft | 450 kts | 185° |
| 2026-04-30 22:43 | 55.62003 | 12.46985 | 36426 ft | 452 kts | 185° |
| 2026-04-30 22:44 | 55.55751 | 12.45818 | 36830 ft | 453 kts | 185° |
| 2026-04-30 22:45 | 55.43184 | 12.43483 | 37408 ft | 457 kts | 186° |
| 2026-04-30 22:45 | 55.36925 | 12.42326 | 37412 ft | 457 kts | 185° |
| 2026-04-30 22:47 | 55.17997 | 12.38850 | 37421 ft | 459 kts | 185° |
| 2026-04-30 22:47 | 55.11639 | 12.37690 | 37772 ft | 460 kts | 186° |
| 2026-04-30 22:48 | 55.05320 | 12.36541 | 38177 ft | 459 kts | 186° |
| 2026-04-30 22:49 | 54.95865 | 12.34825 | 38423 ft | 459 kts | 185° |
| 2026-04-30 22:49 | 54.86389 | 12.33116 | 38426 ft | 459 kts | 185° |
| 2026-04-30 22:51 | 54.67358 | 12.29704 | 38431 ft | 460 kts | 185° |
| 2026-04-30 22:52 | 54.57973 | 12.26989 | 38433 ft | 459 kts | 194° |
| 2026-04-30 22:53 | 54.45763 | 12.20610 | 38434 ft | 460 kts | 197° |
| 2026-04-30 22:53 | 54.36657 | 12.15831 | 38434 ft | 460 kts | 197° |
| 2026-04-30 22:55 | 54.21406 | 12.07885 | 38430 ft | 459 kts | 197° |
| 2026-04-30 22:56 | 54.09220 | 12.01582 | 38445 ft | 460 kts | 197° |
| 2026-04-30 22:57 | 53.94019 | 11.93772 | 38435 ft | 459 kts | 197° |
| 2026-04-30 22:58 | 53.81800 | 11.87536 | 38429 ft | 461 kts | 197° |
| 2026-04-30 22:59 | 53.63464 | 11.78249 | 38429 ft | 462 kts | 197° |